Time;durP1;ratioP1;P1;durP2;ratioP2;P2;SDS_P1;SDS_P2;PMS_P1;PMS_P2;Temp;Humidity;BMP_temperature;BMP_pressure;BME280_temperature;BME280_humidity;BME280_pressure;Samples;Min_cycle;Max_cycle;Signal;HPM_P1;HPM_P2
2022/06/25 00:00:37;;;;;;;8.45;0.98;;;14.20;98.00;;;;;;5061430;28;20039;-66
2022/06/25 00:03:03;;;;;;;8.57;0.90;;;14.10;98.10;;;;;;5061886;28;20304;-66
2022/06/25 00:05:28;;;;;;;3.22;0.60;;;14.10;98.10;;;;;;5061354;28;20048;-66
2022/06/25 00:07:55;;;;;;;7.75;1.00;;;14.00;98.10;;;;;;5061778;28;20032;-66
2022/06/25 00:10:22;;;;;;;5.93;0.80;;;14.00;98.20;;;;;;5059830;28;20080;-66
2022/06/25 00:12:47;;;;;;;3.47;0.70;;;13.90;98.20;;;;;;5061548;28;20263;-66
2022/06/25 00:15:13;;;;;;;8.82;1.90;;;13.90;98.10;;;;;;5061891;28;20025;-66
2022/06/25 00:17:39;;;;;;;9.63;1.10;;;13.90;98.30;;;;;;5060610;28;20033;-66
2022/06/25 00:20:06;;;;;;;7.07;1.38;;;13.90;98.30;;;;;;5061411;28;20047;-66
2022/06/25 00:22:32;;;;;;;6.15;1.08;;;13.80;98.30;;;;;;5060259;28;20028;-67
2022/06/25 00:24:58;;;;;;;5.95;0.93;;;13.80;98.30;;;;;;5060181;28;20024;-67
2022/06/25 00:27:24;;;;;;;5.32;1.10;;;13.80;98.30;;;;;;5061832;28;20017;-67
2022/06/25 00:29:50;;;;;;;8.02;1.00;;;13.70;98.30;;;;;;5061851;28;20207;-67
2022/06/25 00:32:16;;;;;;;5.63;1.13;;;13.70;98.30;;;;;;5061697;28;20067;-67
2022/06/25 00:34:42;;;;;;;7.05;1.17;;;13.70;98.30;;;;;;5060227;28;20255;-67
2022/06/25 00:37:08;;;;;;;8.27;1.33;;;13.70;98.20;;;;;;5061489;28;20021;-67
2022/06/25 00:39:36;;;;;;;7.20;1.17;;;13.70;98.20;;;;;;5060244;28;20029;-66
2022/06/25 00:42:07;;;;;;;9.32;1.05;;;13.70;98.20;;;;;;5060566;28;20028;-66
2022/06/25 00:44:33;;;;;;;9.55;1.10;;;13.60;98.20;;;;;;5061564;28;20033;-68
2022/06/25 00:46:59;;;;;;;8.82;1.15;;;13.60;98.30;;;;;;5061080;28;20237;-66
2022/06/25 00:49:24;;;;;;;7.20;0.88;;;13.60;98.30;;;;;;5061384;28;20028;-67
2022/06/25 00:51:51;;;;;;;4.15;1.10;;;13.60;98.40;;;;;;5061396;28;20033;-66
2022/06/25 00:54:18;;;;;;;5.20;0.93;;;13.50;98.50;;;;;;5060071;28;20036;-66
2022/06/25 00:56:50;;;;;;;4.28;0.90;;;13.50;98.60;;;;;;5059548;28;20028;-66
2022/06/25 00:59:23;;;;;;;8.40;1.30;;;13.50;98.60;;;;;;5060436;28;20075;-66
2022/06/25 01:01:49;;;;;;;4.97;1.30;;;13.40;98.70;;;;;;5059329;28;20039;-66
2022/06/25 01:04:14;;;;;;;4.32;0.90;;;13.40;98.90;;;;;;5061444;28;20040;-66
2022/06/25 01:06:41;;;;;;;5.05;0.95;;;13.40;99.00;;;;;;5061227;28;20027;-66
2022/06/25 01:09:07;;;;;;;7.55;1.00;;;13.40;99.00;;;;;;5060231;28;20048;-66
2022/06/25 01:11:32;;;;;;;9.48;1.25;;;13.40;99.10;;;;;;5041637;28;20029;-66
2022/06/25 01:13:58;;;;;;;5.97;1.25;;;13.30;99.20;;;;;;5061113;28;20236;-66
2022/06/25 01:16:24;;;;;;;5.38;0.88;;;13.30;99.20;;;;;;5063825;28;20354;-66
2022/06/25 01:18:49;;;;;;;6.78;0.95;;;13.30;99.40;;;;;;5063898;28;20242;-66
2022/06/25 01:21:16;;;;;;;7.40;0.80;;;13.20;99.50;;;;;;5063782;28;20341;-66
2022/06/25 01:23:41;;;;;;;4.60;0.90;;;13.20;99.60;;;;;;5064036;28;20149;-66
2022/06/25 01:26:07;;;;;;;7.78;0.80;;;13.10;99.60;;;;;;5063655;28;20029;-66
2022/06/25 01:28:33;;;;;;;5.88;1.00;;;13.10;99.80;;;;;;5063723;28;20031;-66
2022/06/25 01:30:59;;;;;;;7.90;1.08;;;13.10;99.80;;;;;;5064946;28;20242;-66
2022/06/25 01:33:24;;;;;;;6.10;1.20;;;13.00;99.80;;;;;;5064834;28;20038;-66
2022/06/25 01:35:50;;;;;;;3.10;0.95;;;13.00;99.90;;;;;;5063074;28;20039;-65
2022/06/25 01:38:16;;;;;;;6.70;1.15;;;13.00;99.80;;;;;;5064570;28;20040;-66
2022/06/25 01:40:42;;;;;;;5.20;1.10;;;13.00;99.80;;;;;;5065133;28;20033;-66
2022/06/25 01:43:07;;;;;;;5.20;1.00;;;13.00;99.70;;;;;;5064813;28;20028;-66
2022/06/25 01:45:36;;;;;;;5.03;0.70;;;13.00;99.60;;;;;;5064782;28;20497;-66
2022/06/25 01:48:04;;;;;;;8.73;1.10;;;13.00;99.60;;;;;;5062795;28;20328;-66
2022/06/25 01:50:30;;;;;;;5.03;0.80;;;12.90;99.60;;;;;;5063030;28;20308;-66
2022/06/25 01:52:56;;;;;;;5.97;1.02;;;12.90;99.60;;;;;;5063244;28;20037;-66
2022/06/25 01:55:22;;;;;;;7.45;1.10;;;12.90;99.70;;;;;;5062850;28;20036;-66
2022/06/25 01:57:49;;;;;;;7.15;1.30;;;12.80;99.70;;;;;;5062848;28;20021;-66
2022/06/25 02:00:18;;;;;;;12.05;1.10;;;12.80;99.80;;;;;;5046718;28;20029;-66
2022/06/25 02:02:44;;;;;;;7.72;0.75;;;12.70;99.90;;;;;;5062740;28;20053;-66
2022/06/25 02:05:12;;;;;;;10.20;0.98;;;12.70;99.90;;;;;;5063001;28;20271;-66
2022/06/25 02:07:38;;;;;;;7.15;1.23;;;12.70;99.90;;;;;;5064389;28;20025;-66
2022/06/25 02:10:05;;;;;;;9.43;1.30;;;12.60;99.90;;;;;;5064129;28;20036;-66
2022/06/25 02:12:30;;;;;;;6.80;1.50;;;12.60;99.90;;;;;;5062099;28;20028;-66
2022/06/25 02:14:56;;;;;;;12.38;1.30;;;12.60;99.90;;;;;;5063604;28;20052;-66
2022/06/25 02:17:22;;;;;;;10.70;1.20;;;12.60;99.90;;;;;;5063432;28;20031;-66
2022/06/25 02:19:47;;;;;;;4.72;0.90;;;12.50;99.90;;;;;;5063911;28;20036;-66
2022/06/25 02:22:14;;;;;;;8.93;1.10;;;12.50;99.90;;;;;;5063666;28;20044;-66
2022/06/25 02:24:42;;;;;;;6.47;1.13;;;12.50;99.90;;;;;;5063416;28;20037;-66
2022/06/25 02:27:08;;;;;;;8.38;1.00;;;12.50;99.90;;;;;;5063373;28;20028;-66
2022/06/25 02:29:34;;;;;;;9.93;1.13;;;12.50;99.90;;;;;;5062607;28;20024;-65
2022/06/25 02:32:00;;;;;;;10.23;1.67;;;12.40;99.90;;;;;;5063291;28;20029;-65
2022/06/25 02:34:26;;;;;;;5.40;1.70;;;12.40;99.90;;;;;;5062166;28;20035;-66
2022/06/25 02:36:52;;;;;;;8.57;1.15;;;12.40;99.90;;;;;;5063363;28;20090;-66
2022/06/25 02:39:18;;;;;;;6.90;1.35;;;12.50;99.90;;;;;;5062433;28;20036;-66
2022/06/25 02:41:44;;;;;;;6.90;0.93;;;12.50;99.90;;;;;;5062470;28;20016;-66
2022/06/25 02:44:09;;;;;;;10.80;1.48;;;12.60;99.90;;;;;;5045898;28;20130;-66
2022/06/25 02:46:35;;;;;;;10.90;1.80;;;12.60;99.90;;;;;;5063206;28;20050;-66
2022/06/25 02:49:01;;;;;;;10.38;1.20;;;12.60;99.90;;;;;;5063324;28;20041;-66
2022/06/25 02:51:27;;;;;;;8.35;1.23;;;12.60;99.90;;;;;;5061756;28;20347;-66
2022/06/25 02:53:55;;;;;;;9.43;1.58;;;12.60;99.90;;;;;;5062795;28;20296;-66
2022/06/25 02:59:07;;;;;;;9.68;1.27;;;12.50;99.90;;;;;;5062247;28;20071;-66
2022/06/25 03:01:33;;;;;;;6.18;1.30;;;12.50;99.90;;;;;;5062971;28;20343;-66
2022/06/25 03:03:59;;;;;;;7.80;1.60;;;12.40;99.90;;;;;;5061246;28;20400;-66
2022/06/25 03:06:25;;;;;;;7.28;1.15;;;12.40;99.90;;;;;;5063049;28;20036;-66
2022/06/25 03:08:51;;;;;;;6.88;1.30;;;12.40;99.90;;;;;;5061772;28;20033;-66
2022/06/25 03:11:17;;;;;;;8.60;1.33;;;12.30;99.90;;;;;;5061626;28;20201;-66
2022/06/25 03:13:43;;;;;;;11.77;1.30;;;12.30;99.90;;;;;;5060053;28;20071;-66
2022/06/25 03:16:09;;;;;;;7.30;1.30;;;12.30;99.90;;;;;;5061759;28;20324;-66
2022/06/25 03:18:36;;;;;;;11.98;1.55;;;12.30;99.90;;;;;;5062722;28;20065;-66
2022/06/25 03:21:03;;;;;;;12.75;1.42;;;12.30;99.90;;;;;;5062520;28;20066;-67
2022/06/25 03:23:29;;;;;;;9.57;1.55;;;12.20;99.90;;;;;;5062629;28;20056;-66
2022/06/25 03:25:55;;;;;;;7.90;1.23;;;12.20;99.90;;;;;;5062747;28;20025;-66
2022/06/25 03:28:22;;;;;;;7.80;1.40;;;12.20;99.90;;;;;;5061490;28;20139;-66
2022/06/25 03:30:48;;;;;;;8.45;1.48;;;12.20;99.90;;;;;;5062513;28;20259;-66
2022/06/25 03:33:14;;;;;;;7.65;1.30;;;12.10;99.90;;;;;;5062739;28;20029;-66
2022/06/25 03:35:40;;;;;;;9.27;1.70;;;12.00;99.90;;;;;;5062489;28;20036;-66
2022/06/25 03:38:06;;;;;;;10.10;1.50;;;12.00;99.90;;;;;;5062108;28;20028;-66
2022/06/25 03:40:31;;;;;;;12.35;1.75;;;12.00;99.90;;;;;;5062679;28;20303;-66
2022/06/25 03:42:58;;;;;;;9.85;1.30;;;12.00;99.90;;;;;;5063578;28;20296;-66
2022/06/25 03:45:24;;;;;;;13.13;1.45;;;12.00;99.90;;;;;;5062975;28;20181;-66
2022/06/25 03:47:50;;;;;;;11.45;1.60;;;12.00;99.90;;;;;;5063652;28;20037;-66
2022/06/25 03:50:18;;;;;;;14.88;1.30;;;12.00;99.90;;;;;;5063761;28;20096;-66
2022/06/25 03:52:45;;;;;;;15.40;1.60;;;12.00;99.90;;;;;;5062523;28;20066;-66
2022/06/25 03:55:12;;;;;;;12.45;1.40;;;12.00;99.90;;;;;;5062517;28;20040;-66
2022/06/25 03:57:37;;;;;;;12.93;1.60;;;11.90;99.90;;;;;;5062938;28;20308;-66
2022/06/25 04:00:06;;;;;;;15.45;1.88;;;11.90;99.90;;;;;;5062883;28;20031;-66
2022/06/25 04:02:31;;;;;;;7.00;1.38;;;11.90;99.90;;;;;;5061110;28;20045;-66
2022/06/25 04:04:57;;;;;;;18.17;1.65;;;11.90;99.90;;;;;;5060364;28;20036;-66
2022/06/25 04:07:23;;;;;;;7.60;1.70;;;12.00;99.90;;;;;;5061796;28;20276;-66
2022/06/25 04:09:48;;;;;;;14.57;1.60;;;12.00;99.90;;;;;;5061979;28;20335;-66
2022/06/25 04:12:14;;;;;;;10.90;1.60;;;12.00;99.90;;;;;;5060482;28;20028;-66
2022/06/25 04:14:40;;;;;;;12.68;1.63;;;12.00;99.90;;;;;;5060026;28;20016;-67
2022/06/25 04:17:06;;;;;;;11.60;1.67;;;12.00;99.90;;;;;;5061860;28;20095;-66
2022/06/25 04:19:39;;;;;;;6.47;1.38;;;12.00;99.90;;;;;;5061568;28;20214;-66
2022/06/25 04:22:07;;;;;;;14.70;1.85;;;12.00;99.90;;;;;;5061457;28;20016;-66
2022/06/25 04:24:34;;;;;;;11.55;1.58;;;12.10;99.90;;;;;;5060528;28;20052;-66
2022/06/25 04:26:59;;;;;;;11.05;1.60;;;12.10;99.90;;;;;;5060577;28;20024;-66
2022/06/25 04:29:25;;;;;;;8.27;1.58;;;12.10;99.90;;;;;;5060169;28;20093;-66
2022/06/25 04:31:50;;;;;;;13.60;1.65;;;12.10;99.90;;;;;;5061677;28;20033;-66
2022/06/25 04:34:16;;;;;;;9.88;1.70;;;12.20;99.90;;;;;;5060268;28;20024;-66
2022/06/25 04:36:42;;;;;;;9.88;1.80;;;12.20;99.90;;;;;;5061438;28;20056;-66
2022/06/25 04:39:07;;;;;;;8.48;1.67;;;12.40;99.90;;;;;;5061841;28;20375;-66
2022/06/25 04:41:33;;;;;;;12.18;1.70;;;12.60;99.90;;;;;;5061403;28;20032;-66
2022/06/25 04:44:01;;;;;;;6.82;1.42;;;12.80;99.90;;;;;;5060979;28;20036;-66
2022/06/25 04:46:29;;;;;;;9.85;1.63;;;12.90;99.90;;;;;;5061078;28;20088;-67
2022/06/25 04:48:56;;;;;;;12.35;1.60;;;13.20;99.90;;;;;;5060149;28;20055;-66
2022/06/25 04:51:22;;;;;;;10.70;1.65;;;13.50;99.90;;;;;;5062932;28;20063;-66
2022/06/25 04:53:55;;;;;;;8.45;2.17;;;13.60;99.60;;;;;;5064260;28;20020;-67
2022/06/25 04:56:22;;;;;;;14.48;1.80;;;14.00;99.40;;;;;;5066021;28;20067;-67
2022/06/25 04:58:47;;;;;;;10.60;1.65;;;14.10;98.50;;;;;;5064332;28;20024;-67
2022/06/25 05:01:13;;;;;;;9.73;2.08;;;14.30;98.30;;;;;;5064500;28;20338;-66
2022/06/25 05:03:38;;;;;;;14.68;2.13;;;14.30;98.20;;;;;;5065234;28;20028;-67
2022/06/25 05:06:06;;;;;;;14.20;1.70;;;14.40;98.10;;;;;;5064894;28;20016;-67
2022/06/25 05:08:32;;;;;;;8.98;1.67;;;14.40;97.90;;;;;;5065184;28;20062;-67
2022/06/25 05:10:57;;;;;;;7.30;1.35;;;14.40;98.00;;;;;;5047672;28;20025;-67
2022/06/25 05:13:24;;;;;;;14.82;1.77;;;14.60;97.80;;;;;;5065418;28;20035;-66
2022/06/25 05:15:49;;;;;;;10.07;1.63;;;14.60;97.60;;;;;;5063426;28;20036;-67
2022/06/25 05:18:15;;;;;;;9.75;1.67;;;14.80;97.40;;;;;;5065062;28;20177;-66
2022/06/25 05:20:42;;;;;;;14.30;2.00;;;15.00;97.10;;;;;;5064810;28;20359;-67
2022/06/25 05:23:08;;;;;;;16.30;2.13;;;14.90;97.00;;;;;;5064990;28;20052;-66
2022/06/25 05:25:35;;;;;;;12.93;2.58;;;14.80;97.20;;;;;;5063184;28;20320;-67
2022/06/25 05:28:02;;;;;;;13.77;1.95;;;14.70;97.40;;;;;;5064062;28;20035;-66
2022/06/25 05:30:27;;;;;;;11.82;1.98;;;14.50;97.70;;;;;;5063712;28;20251;-66
2022/06/25 05:32:53;;;;;;;10.75;1.83;;;14.30;98.00;;;;;;5064884;28;20029;-66
2022/06/25 05:35:19;;;;;;;17.63;2.25;;;14.20;98.60;;;;;;5064368;28;20028;-66
2022/06/25 05:37:45;;;;;;;13.15;1.80;;;14.10;98.60;;;;;;5063027;28;20185;-66
2022/06/25 05:40:11;;;;;;;13.70;2.15;;;14.20;98.50;;;;;;5063133;28;20055;-66
2022/06/25 05:42:37;;;;;;;12.63;2.00;;;14.30;98.60;;;;;;5046952;28;20205;-66
2022/06/25 05:45:03;;;;;;;9.35;1.77;;;14.40;98.40;;;;;;5064565;28;20029;-66
2022/06/25 05:47:29;;;;;;;13.20;2.03;;;14.50;98.20;;;;;;5063794;28;20060;-66
2022/06/25 05:49:55;;;;;;;9.48;2.00;;;14.70;98.10;;;;;;5046296;28;20029;-67
2022/06/25 05:52:21;;;;;;;10.18;1.90;;;14.80;97.90;;;;;;5064613;28;20024;-67
2022/06/25 05:54:48;;;;;;;8.65;2.35;;;15.00;97.70;;;;;;5064634;28;20071;-66
2022/06/25 05:57:14;;;;;;;16.40;1.80;;;15.00;97.30;;;;;;5063165;28;20021;-66
2022/06/25 05:59:40;;;;;;;12.98;2.00;;;15.10;97.40;;;;;;5064425;28;20035;-66
2022/06/25 06:02:06;;;;;;;11.23;1.90;;;15.10;97.30;;;;;;5063227;28;20028;-66
2022/06/25 06:04:32;;;;;;;12.80;1.83;;;15.00;97.50;;;;;;5064678;28;20043;-66
2022/06/25 06:06:59;;;;;;;16.85;2.25;;;15.00;97.70;;;;;;5064869;28;20033;-66
2022/06/25 06:09:27;;;;;;;11.80;1.70;;;14.90;97.70;;;;;;5065133;28;20056;-66
2022/06/25 06:11:54;;;;;;;13.32;2.10;;;14.90;97.80;;;;;;5064370;28;20025;-66
2022/06/25 06:14:20;;;;;;;11.32;1.73;;;15.00;97.80;;;;;;5065294;28;20088;-67
2022/06/25 06:16:46;;;;;;;9.35;1.67;;;15.10;97.50;;;;;;5064796;28;20029;-66
2022/06/25 06:19:11;;;;;;;11.30;2.42;;;15.10;97.50;;;;;;5066612;28;20039;-66
2022/06/25 06:21:37;;;;;;;10.38;2.08;;;15.40;97.10;;;;;;5077098;28;20024;-66
2022/06/25 06:24:03;;;;;;;8.25;1.52;;;15.50;96.50;;;;;;5078165;28;20029;-66
2022/06/25 06:26:29;;;;;;;15.15;2.53;;;15.70;96.10;;;;;;5078770;28;20045;-67
2022/06/25 06:28:55;;;;;;;11.05;2.05;;;15.90;95.60;;;;;;5078687;28;20036;-67
2022/06/25 06:31:20;;;;;;;8.30;1.85;;;16.10;95.20;;;;;;5079015;28;20074;-67
2022/06/25 06:33:46;;;;;;;11.02;2.42;;;16.20;95.10;;;;;;5078877;28;20060;-67
2022/06/25 06:36:12;;;;;;;9.10;1.95;;;16.20;95.10;;;;;;5078339;28;20260;-66
2022/06/25 06:38:38;;;;;;;10.13;2.35;;;16.10;95.00;;;;;;5078339;28;20017;-66
2022/06/25 06:41:04;;;;;;;13.40;2.58;;;16.10;95.10;;;;;;5053812;28;20042;-66
2022/06/25 06:43:30;;;;;;;15.90;2.50;;;16.00;95.10;;;;;;5042680;28;20036;-67
2022/06/25 06:45:55;;;;;;;10.43;2.00;;;15.90;95.30;;;;;;5027975;28;20068;-66
2022/06/25 06:48:21;;;;;;;10.25;2.50;;;15.90;95.20;;;;;;5063381;28;20064;-66
2022/06/25 06:50:47;;;;;;;12.73;2.47;;;15.90;95.70;;;;;;5062078;28;20036;-66
2022/06/25 06:53:13;;;;;;;11.20;2.22;;;15.90;96.80;;;;;;5063485;28;20303;-67
2022/06/25 06:55:38;;;;;;;10.30;2.53;;;16.00;97.40;;;;;;5063882;28;20288;-66
2022/06/25 06:58:04;;;;;;;13.05;2.38;;;15.80;97.40;;;;;;5062903;28;20263;-66
2022/06/25 07:00:29;;;;;;;14.85;2.55;;;15.70;97.40;;;;;;5063354;28;20036;-66
2022/06/25 07:02:55;;;;;;;12.10;3.60;;;15.60;97.90;;;;;;5063574;28;20036;-66
2022/06/25 07:05:21;;;;;;;10.05;2.13;;;15.60;98.20;;;;;;5063099;28;20032;-66
2022/06/25 07:07:47;;;;;;;11.50;2.53;;;15.60;97.80;;;;;;5063128;28;20086;-66
2022/06/25 07:10:14;;;;;;;16.35;2.47;;;15.50;97.80;;;;;;5063252;28;20028;-66
2022/06/25 07:12:40;;;;;;;10.15;2.50;;;15.30;97.90;;;;;;5062633;28;20032;-66
2022/06/25 07:15:06;;;;;;;14.02;2.88;;;15.30;98.30;;;;;;5063058;28;20315;-66
2022/06/25 07:17:32;;;;;;;9.63;2.13;;;15.20;98.30;;;;;;5061703;28;20091;-67
2022/06/25 07:19:58;;;;;;;9.07;2.40;;;15.20;97.20;;;;;;5062479;28;20029;-67
2022/06/25 07:22:24;;;;;;;14.00;2.63;;;15.20;97.50;;;;;;5062805;28;20024;-67
2022/06/25 07:24:51;;;;;;;13.48;2.45;;;15.30;97.80;;;;;;5062938;28;20036;-67
2022/06/25 07:27:18;;;;;;;12.90;2.70;;;15.40;98.20;;;;;;5062886;28;20338;-67
2022/06/25 07:29:44;;;;;;;13.90;2.80;;;15.60;98.10;;;;;;5062777;28;20053;-67
2022/06/25 07:32:10;;;;;;;10.20;2.88;;;15.80;98.10;;;;;;5061770;28;20028;-67
2022/06/25 07:34:37;;;;;;;12.52;2.28;;;15.90;97.40;;;;;;5062556;28;20260;-67
2022/06/25 07:37:04;;;;;;;11.68;2.42;;;16.00;97.30;;;;;;5061349;28;20025;-67
2022/06/25 07:39:29;;;;;;;9.18;2.45;;;16.10;97.10;;;;;;5062624;28;20343;-67
2022/06/25 07:41:55;;;;;;;16.85;3.00;;;16.20;96.50;;;;;;5062121;28;20037;-67
2022/06/25 07:44:21;;;;;;;13.55;2.38;;;16.20;96.20;;;;;;5062708;28;20096;-68
2022/06/25 07:46:47;;;;;;;13.00;2.50;;;16.20;95.90;;;;;;5062280;28;20040;-66
2022/06/25 07:49:13;;;;;;;16.88;2.70;;;16.20;95.00;;;;;;5060611;28;20072;-67
2022/06/25 07:52:00;;;;;;;17.02;2.88;;;16.30;95.60;;;;;;5061348;28;20045;-67
2022/06/25 07:54:30;;;;;;;14.10;2.72;;;16.50;95.20;;;;;;5061421;28;20091;-67
2022/06/25 07:56:56;;;;;;;10.63;2.38;;;16.60;95.00;;;;;;5061444;28;20025;-67
2022/06/25 07:59:22;;;;;;;14.48;2.50;;;16.60;94.80;;;;;;5062849;28;20021;-67
2022/06/25 08:01:48;;;;;;;11.38;2.60;;;16.60;94.90;;;;;;5062454;28;20351;-67
2022/06/25 08:04:14;;;;;;;12.45;2.30;;;16.70;95.30;;;;;;5062061;28;20036;-67
2022/06/25 08:06:41;;;;;;;15.07;2.30;;;16.90;94.40;;;;;;5062199;28;20427;-67
2022/06/25 08:09:08;;;;;;;12.82;2.45;;;17.20;93.40;;;;;;5061883;28;20070;-67
2022/06/25 08:11:34;;;;;;;9.73;2.35;;;17.40;92.80;;;;;;5062363;28;20036;-67
2022/06/25 08:14:00;;;;;;;11.20;2.10;;;17.40;92.30;;;;;;5062156;28;20038;-68
2022/06/25 08:16:25;;;;;;;10.00;2.40;;;17.40;92.30;;;;;;5060753;28;20060;-66
2022/06/25 08:18:52;;;;;;;7.47;1.90;;;17.30;91.50;;;;;;5062044;28;20033;-66
2022/06/25 08:21:18;;;;;;;14.15;2.72;;;17.00;92.50;;;;;;5060783;28;20029;-68
2022/06/25 08:23:44;;;;;;;15.82;2.97;;;16.90;92.70;;;;;;5061419;28;20029;-67
2022/06/25 08:26:10;;;;;;;10.15;2.13;;;16.90;92.70;;;;;;5060962;28;20110;-67
2022/06/25 08:28:36;;;;;;;15.80;2.67;;;17.00;92.60;;;;;;5061393;28;20312;-67
2022/06/25 08:31:03;;;;;;;12.52;2.40;;;17.20;92.20;;;;;;5062062;28;20075;-69
2022/06/25 08:33:28;;;;;;;11.60;2.20;;;17.50;92.00;;;;;;5061792;28;20302;-67
2022/06/25 08:35:54;;;;;;;16.45;2.65;;;17.60;91.80;;;;;;5061573;28;20033;-67
2022/06/25 08:38:20;;;;;;;7.18;2.00;;;17.60;91.90;;;;;;5061986;28;20055;-67
2022/06/25 08:40:45;;;;;;;11.95;2.92;;;17.10;93.10;;;;;;5061383;28;20021;-67
2022/06/25 08:43:11;;;;;;;14.70;2.33;;;16.90;94.90;;;;;;5061010;28;20028;-67
2022/06/25 08:45:37;;;;;;;11.63;2.00;;;16.80;94.50;;;;;;5060328;28;20076;-67
2022/06/25 08:48:11;;;;;;;14.38;2.13;;;16.90;94.70;;;;;;5061412;28;20120;-67
2022/06/25 08:50:37;;;;;;;8.60;2.00;;;17.00;93.30;;;;;;5060005;28;20056;-68
2022/06/25 08:53:03;;;;;;;10.98;2.08;;;17.20;93.70;;;;;;5061636;28;20064;-67
2022/06/25 08:55:38;;;;;;;6.15;1.70;;;17.20;92.70;;;;;;5061487;28;20036;-66
2022/06/25 08:58:05;;;;;;;9.55;1.60;;;17.30;92.10;;;;;;5060906;28;20048;-66
2022/06/25 09:00:33;;;;;;;7.82;1.70;;;17.70;92.00;;;;;;5061905;28;20037;-67
2022/06/25 09:03:00;;;;;;;5.45;1.60;;;17.80;91.10;;;;;;5044082;28;20088;-67
2022/06/25 09:05:31;;;;;;;4.38;1.15;;;17.80;90.10;;;;;;5061288;28;20223;-67
2022/06/25 09:07:59;;;;;;;6.85;1.63;;;17.90;89.90;;;;;;5060830;28;20033;-68
2022/06/25 09:10:27;;;;;;;10.32;2.00;;;18.10;90.00;;;;;;5061525;28;20057;-67
2022/06/25 09:12:54;;;;;;;9.32;1.70;;;17.90;89.30;;;;;;5060722;28;20050;-67
2022/06/25 09:15:23;;;;;;;5.53;1.60;;;17.90;88.40;;;;;;5061640;28;20184;-67
2022/06/25 09:17:50;;;;;;;11.32;2.13;;;18.10;87.90;;;;;;5060040;28;20099;-67
2022/06/25 09:20:17;;;;;;;9.98;1.88;;;18.00;88.40;;;;;;5060305;28;20101;-68
2022/06/25 09:22:57;;;;;;;10.48;2.17;;;18.10;90.10;;;;;;5060342;28;20099;-68
2022/06/25 09:25:25;;;;;;;10.23;2.20;;;18.50;89.70;;;;;;5061762;28;20025;-67
2022/06/25 09:27:51;;;;;;;7.43;2.13;;;18.80;87.90;;;;;;5060611;28;20017;-67
2022/06/25 09:30:20;;;;;;;10.05;2.60;;;18.80;87.00;;;;;;5061153;28;20040;-68
2022/06/25 09:32:48;;;;;;;7.72;1.90;;;18.70;86.60;;;;;;5060830;28;20029;-68
2022/06/25 09:35:29;;;;;;;11.13;1.98;;;18.80;87.30;;;;;;5061380;28;20051;-68
2022/06/25 09:38:12;;;;;;;9.90;2.10;;;18.70;88.10;;;;;;5046818;28;20025;-67
2022/06/25 09:40:39;;;;;;;8.63;1.85;;;18.80;87.70;;;;;;5064096;28;20235;-68
2022/06/25 09:43:14;;;;;;;8.75;2.00;;;19.00;87.10;;;;;;5064219;28;20048;-67
2022/06/25 09:45:47;;;;;;;9.35;2.20;;;19.00;85.20;;;;;;5064883;28;20021;-67
2022/06/25 09:48:22;;;;;;;12.60;2.10;;;18.90;85.00;;;;;;5065311;28;20095;-66
2022/06/25 09:51:10;;;;;;;9.63;1.83;;;18.70;85.80;;;;;;5046875;28;20052;-67
2022/06/25 09:53:46;;;;;;;4.97;1.05;;;18.50;88.30;;;;;;5064287;28;20021;-67
2022/06/25 09:56:14;;;;;;;5.05;1.40;;;17.30;91.70;;;;;;5047113;28;20051;-66
2022/06/25 09:58:42;;;;;;;8.35;1.25;;;16.40;93.60;;;;;;5064606;28;20323;-67
2022/06/25 10:01:09;;;;;;;4.03;1.00;;;15.80;95.40;;;;;;5063233;28;20024;-68
2022/06/25 10:03:36;;;;;;;5.82;1.50;;;15.70;96.40;;;;;;5062976;28;20021;-67
2022/06/25 10:06:02;;;;;;;5.40;1.20;;;15.90;96.20;;;;;;5063383;28;20347;-67
2022/06/25 10:08:30;;;;;;;4.63;1.20;;;16.20;96.10;;;;;;5064468;28;20017;-67
2022/06/25 10:10:56;;;;;;;5.20;1.30;;;16.50;96.10;;;;;;5063056;28;20368;-67
2022/06/25 10:13:23;;;;;;;4.32;1.08;;;16.80;96.80;;;;;;5063182;28;20288;-68
2022/06/25 10:15:49;;;;;;;6.53;1.90;;;17.20;96.10;;;;;;5062877;28;20033;-67
2022/06/25 10:18:15;;;;;;;5.70;1.48;;;17.20;94.70;;;;;;5044442;28;20059;-68
2022/06/25 10:20:42;;;;;;;6.05;1.80;;;17.50;95.60;;;;;;5063241;28;20024;-67
2022/06/25 10:23:11;;;;;;;9.05;1.80;;;17.60;93.90;;;;;;5064205;28;20062;-67
2022/06/25 10:25:38;;;;;;;6.30;1.65;;;17.60;93.30;;;;;;5062649;28;20021;-67
2022/06/25 10:28:11;;;;;;;9.63;1.77;;;17.80;93.40;;;;;;5046729;28;20399;-67
2022/06/25 10:30:50;;;;;;;6.63;1.80;;;17.80;93.40;;;;;;5063919;28;20279;-67
2022/06/25 10:33:18;;;;;;;7.78;1.63;;;17.90;92.50;;;;;;5063061;28;20041;-67
2022/06/25 10:35:44;;;;;;;5.88;1.80;;;18.30;92.20;;;;;;5063523;28;20037;-68
2022/06/25 10:38:16;;;;;;;9.77;1.60;;;18.80;90.60;;;;;;5063741;28;20021;-67
2022/06/25 10:40:51;;;;;;;8.98;1.83;;;18.80;88.50;;;;;;5062588;28;20456;-67
2022/06/25 10:43:39;;;;;;;11.50;2.25;;;18.70;88.50;;;;;;5063837;28;20204;-67
2022/06/25 10:46:22;;;;;;;5.50;1.50;;;18.90;88.10;;;;;;5062442;28;20092;-68
2022/06/25 10:48:52;;;;;;;8.02;1.85;;;19.00;85.10;;;;;;5060866;28;20053;-67
2022/06/25 10:51:29;;;;;;;9.57;1.83;;;18.90;86.10;;;;;;5062001;28;20047;-67
2022/06/25 10:53:56;;;;;;;9.65;1.70;;;19.00;90.30;;;;;;5062709;28;20215;-67
2022/06/25 10:56:21;;;;;;;10.52;2.00;;;19.20;86.30;;;;;;5045917;28;20211;-67
2022/06/25 10:58:48;;;;;;;8.63;1.80;;;19.40;86.80;;;;;;5061831;28;20056;-67
2022/06/25 11:01:20;;;;;;;12.63;2.25;;;19.50;87.80;;;;;;5061862;28;20032;-67
2022/06/25 11:03:51;;;;;;;7.10;2.00;;;19.60;84.00;;;;;;5063364;28;20017;-67
2022/06/25 11:06:24;;;;;;;7.67;1.40;;;19.60;81.10;;;;;;5062699;28;20020;-67
2022/06/25 11:08:51;;;;;;;11.25;1.80;;;19.50;80.20;;;;;;5062827;28;20303;-67
2022/06/25 11:11:33;;;;;;;6.85;1.73;;;19.30;80.60;;;;;;5063246;28;20074;-67
2022/06/25 11:14:01;;;;;;;15.63;2.00;;;19.50;79.40;;;;;;5045445;28;20067;-68
2022/06/25 11:16:27;;;;;;;6.68;1.73;;;19.60;79.90;;;;;;5062926;28;20023;-67
2022/06/25 11:19:00;;;;;;;9.48;1.60;;;19.50;79.80;;;;;;5043842;28;20029;-68
2022/06/25 11:21:29;;;;;;;14.07;1.73;;;19.50;80.00;;;;;;5061256;28;20311;-69
2022/06/25 11:24:26;;;;;;;12.98;1.98;;;19.60;79.90;;;;;;5061685;28;20044;-69
2022/06/25 11:29:47;;;;;;;16.30;2.35;;;19.50;80.70;;;;;;5061887;28;20047;-67
2022/06/25 11:32:20;;;;;;;7.60;1.80;;;19.30;80.10;;;;;;5062529;28;20028;-67
2022/06/25 11:34:52;;;;;;;8.70;1.63;;;19.30;80.30;;;;;;5062576;28;20025;-67
2022/06/25 11:37:19;;;;;;;9.18;1.98;;;19.40;79.20;;;;;;5062974;28;20060;-67
2022/06/25 11:39:46;;;;;;;8.45;1.52;;;19.50;79.00;;;;;;5061313;28;20394;-67
2022/06/25 11:42:12;;;;;;;17.95;2.42;;;19.60;77.00;;;;;;5060964;28;20304;-67
2022/06/25 11:44:42;;;;;;;8.88;2.22;;;19.70;77.70;;;;;;5061256;28;20036;-67
2022/06/25 11:47:08;;;;;;;9.20;1.27;;;19.70;78.20;;;;;;5062444;28;20033;-67
2022/06/25 11:49:37;;;;;;;7.45;1.50;;;19.70;78.20;;;;;;5061947;28;20352;-67
2022/06/25 11:52:05;;;;;;;6.55;1.50;;;19.70;77.90;;;;;;5062340;28;20070;-68
2022/06/25 11:54:32;;;;;;;6.88;1.60;;;19.90;79.10;;;;;;5061276;28;20021;-67
2022/06/25 11:56:58;;;;;;;4.35;1.17;;;19.90;77.10;;;;;;5062340;28;20050;-68
2022/06/25 11:59:27;;;;;;;5.45;1.27;;;19.90;74.80;;;;;;5060860;28;20029;-68
2022/06/25 12:01:53;;;;;;;6.40;1.60;;;20.00;73.90;;;;;;5060902;28;20036;-67
2022/06/25 12:04:19;;;;;;;6.72;1.20;;;20.10;73.20;;;;;;5061722;28;20094;-68
2022/06/25 12:06:47;;;;;;;5.45;1.50;;;19.90;73.90;;;;;;5062293;28;20052;-68
2022/06/25 12:09:15;;;;;;;7.18;2.33;;;20.00;73.50;;;;;;5044512;28;20189;-69
2022/06/25 12:11:51;;;;;;;5.28;2.40;;;20.20;70.60;;;;;;5061271;28;20196;-68
2022/06/25 12:14:18;;;;;;;10.07;1.75;;;20.40;71.30;;;;;;5060605;28;20020;-68
2022/06/25 12:16:46;;;;;;;6.88;1.75;;;20.30;71.50;;;;;;5062473;28;20028;-69
2022/06/25 12:19:11;;;;;;;6.40;1.38;;;20.40;72.00;;;;;;5061695;28;20029;-68
2022/06/25 12:21:37;;;;;;;5.40;1.17;;;20.40;71.90;;;;;;5059880;28;20017;-68
2022/06/25 12:24:04;;;;;;;4.28;1.23;;;20.50;71.70;;;;;;5062091;28;20028;-68
2022/06/25 12:26:32;;;;;;;6.63;1.38;;;20.20;71.70;;;;;;5062385;28;20025;-67
2022/06/25 12:29:11;;;;;;;3.33;1.33;;;20.20;72.20;;;;;;5044208;28;20338;-68
2022/06/25 12:31:37;;;;;;;3.78;1.10;;;20.40;71.80;;;;;;5062109;28;20029;-68
2022/06/25 12:34:04;;;;;;;8.43;1.10;;;20.30;71.40;;;;;;5060425;28;20036;-67
2022/06/25 12:36:33;;;;;;;3.63;1.58;;;20.30;71.40;;;;;;5060785;28;20017;-67
2022/06/25 12:38:59;;;;;;;3.38;0.95;;;20.20;70.60;;;;;;5061470;28;20029;-67
2022/06/25 12:41:45;;;;;;;4.57;1.40;;;20.10;72.10;;;;;;5061678;28;20308;-67
2022/06/25 12:44:12;;;;;;;3.90;1.20;;;20.30;72.30;;;;;;5046746;28;20025;-67
2022/06/25 12:46:38;;;;;;;6.75;1.13;;;20.50;71.10;;;;;;5061079;28;20312;-67
2022/06/25 12:49:04;;;;;;;6.40;1.25;;;20.50;71.10;;;;;;5059855;28;20112;-67